Chase, Canada
Current Conditions -  °F | °C
As of 1:00 PM on Sunday 23 Nov 2014 (Local Time) from CYKA Reporting Station
Broken Clouds Broken Clouds  
Wind Chill: 36°   Ceiling: 22000
Heat Index: 41°   Visibility: 40mi
Dew Point: 34°   Wind: 8mph
Humidity: 76%   Direction: 110°ESE
Pressure: 29.88"   Gusts: NA
Location:  50.82°N, 119.68°W
Report Text: CYKA 232100Z 11007KT 40SM FEW060 SCT140 BKN220 05/01 A2988 RMK SC1AC3CI3 SLP132
Loading
Personal Weather Stations






























Interactive Weather Map New forecast layout! Learn more

10-Day Weather Forecast

Advertisements
Track Severe Weather on mobile